createdAt,value
2022-08-11T00:04:38.516Z,0.00
2022-08-11T00:10:10.058Z,1.00
2022-08-11T00:15:41.992Z,0.00
2022-08-11T00:21:13.826Z,1.00
2022-08-11T00:26:45.661Z,0.00
2022-08-11T00:32:17.291Z,0.00
2022-08-11T00:37:49.231Z,0.00
2022-08-11T00:48:52.899Z,0.00
2022-08-11T00:54:24.695Z,0.00
2022-08-11T00:59:56.240Z,1.00
2022-08-11T01:05:28.046Z,0.00
2022-08-11T01:10:59.872Z,1.00
2022-08-11T01:16:31.761Z,0.00
2022-08-11T01:24:24.215Z,0.00
2022-08-11T01:29:55.483Z,0.00
2022-08-11T01:35:27.251Z,0.00
2022-08-11T01:40:59.215Z,0.00
2022-08-11T01:52:03.259Z,1.00
2022-08-11T01:57:35.178Z,1.00
2022-08-11T02:03:06.867Z,0.00
2022-08-11T02:08:39.025Z,0.00
2022-08-11T02:14:11.109Z,1.00
2022-08-11T02:19:44.203Z,0.00
2022-08-11T02:30:48.803Z,0.00
2022-08-11T02:36:21.021Z,1.00
2022-08-11T02:41:52.779Z,1.00
2022-08-11T02:47:24.541Z,0.00
2022-08-11T02:52:56.672Z,1.00
2022-08-11T02:58:28.823Z,1.00
2022-08-11T03:04:00.483Z,0.00
2022-08-11T03:15:04.127Z,1.00
2022-08-11T03:20:39.210Z,4.00
2022-08-11T03:26:10.745Z,9.00
2022-08-11T03:31:42.397Z,23.00
2022-08-11T03:37:16.528Z,62.00
2022-08-11T03:42:46.449Z,150.00
2022-08-11T03:48:18.317Z,316.00
2022-08-11T03:53:50.157Z,513.00
2022-08-11T03:59:21.932Z,718.00
2022-08-11T04:04:53.613Z,1121.00
2022-08-11T04:10:25.601Z,1785.00
2022-08-11T04:15:57.650Z,5021.00
2022-08-11T04:21:29.603Z,14805.00
2022-08-11T04:27:01.897Z,19279.00
2022-08-11T04:32:33.148Z,29622.00
2022-08-11T04:38:04.790Z,37228.00
2022-08-11T04:43:36.541Z,37889.00
2022-08-11T04:49:08.232Z,37889.00
2022-08-11T04:54:40.283Z,8315.00
2022-08-11T05:00:12.024Z,7824.00
2022-08-11T05:05:56.572Z,7823.00
2022-08-11T05:11:15.597Z,7972.00
2022-08-11T05:16:47.230Z,8193.00
2022-08-11T05:22:18.988Z,8529.00
2022-08-11T05:27:51.112Z,8877.00
2022-08-11T05:33:23.051Z,33438.00
2022-08-11T05:38:55.114Z,37889.00
2022-08-11T05:44:26.861Z,37889.00
2022-08-11T05:49:58.451Z,37889.00
2022-08-11T05:55:30.498Z,37889.00
2022-08-11T06:01:02.332Z,37889.00
2022-08-11T06:06:33.824Z,37889.00
2022-08-11T06:12:05.582Z,37889.00
2022-08-11T06:17:38.936Z,37889.00
2022-08-11T06:23:09.497Z,37889.00
2022-08-11T06:28:41.479Z,37889.00
2022-08-11T06:34:27.154Z,37889.00
2022-08-11T06:39:45.360Z,37889.00
2022-08-11T06:45:16.980Z,37889.00
2022-08-11T06:50:48.830Z,37889.00
2022-08-11T06:56:20.617Z,37889.00
2022-08-11T07:01:52.450Z,37889.00
2022-08-11T07:07:24.249Z,37889.00
2022-08-11T07:12:56.081Z,37889.00
2022-08-11T07:18:27.911Z,37889.00
2022-08-11T07:23:59.642Z,37889.00
2022-08-11T07:29:31.724Z,37889.00
2022-08-11T07:35:03.300Z,37889.00
2022-08-11T07:40:35.198Z,37889.00
2022-08-11T07:46:07.022Z,37889.00
2022-08-11T07:51:39.046Z,37889.00
2022-08-11T07:58:13.803Z,37889.00
2022-08-11T08:02:42.369Z,37889.00
2022-08-11T08:08:14.193Z,37889.00
2022-08-11T08:13:45.990Z,37889.00
2022-08-11T08:19:17.862Z,37889.00
2022-08-11T08:24:49.661Z,37889.00
2022-08-11T08:30:21.554Z,37889.00
2022-08-11T08:35:54.720Z,37889.00
2022-08-11T08:41:25.045Z,37889.00
2022-08-11T08:46:57.201Z,37889.00
2022-08-11T08:52:33.224Z,37889.00
2022-08-11T08:58:00.986Z,37889.00
2022-08-11T09:04:04.958Z,37889.00
2022-08-11T09:09:04.755Z,37889.00
2022-08-11T09:14:36.420Z,37889.00
2022-08-11T09:20:08.216Z,37889.00
2022-08-11T09:25:40.162Z,17745.00
2022-08-11T09:31:11.548Z,17737.00
2022-08-11T09:36:43.452Z,16629.00
2022-08-11T09:42:16.659Z,16370.00
2022-08-11T09:47:47.086Z,15995.00
2022-08-11T09:53:36.255Z,15815.00
2022-08-11T09:58:50.653Z,15493.00
2022-08-11T10:04:22.504Z,15021.00
2022-08-11T10:09:54.443Z,14858.00
2022-08-11T10:15:26.224Z,14519.00
2022-08-11T10:20:57.847Z,14191.00
2022-08-11T10:26:29.565Z,14125.00
2022-08-11T10:32:02.030Z,13931.00
2022-08-11T10:38:06.240Z,13776.00
2022-08-11T10:43:05.113Z,13661.00
2022-08-11T10:48:36.929Z,13671.00
2022-08-11T10:54:11.476Z,13531.00
2022-08-11T10:59:40.547Z,13540.00
2022-08-11T11:05:12.466Z,13396.00
2022-08-11T11:10:44.163Z,13255.00
2022-08-11T11:16:15.978Z,13179.00
2022-08-11T11:21:47.831Z,13216.00
2022-08-11T11:27:19.727Z,13149.00
2022-08-11T11:32:51.851Z,13261.00
2022-08-11T11:38:23.521Z,13332.00
2022-08-11T11:43:55.609Z,13361.00
2022-08-11T11:49:27.776Z,13623.00
2022-08-11T11:54:59.538Z,13824.00
2022-08-11T12:00:33.189Z,14232.00
2022-08-11T12:06:03.077Z,14557.00
2022-08-11T12:11:34.771Z,14735.00
2022-08-11T12:17:06.909Z,15051.00
2022-08-11T12:22:38.477Z,15659.00
2022-08-11T12:28:10.606Z,16332.00
2022-08-11T12:33:42.665Z,16340.00
2022-08-11T12:39:23.110Z,15535.00
2022-08-11T12:44:46.332Z,16517.00
2022-08-11T12:50:22.976Z,16489.00
2022-08-11T12:56:03.697Z,17451.00
2022-08-11T13:01:21.521Z,18837.00
2022-08-11T13:06:53.556Z,22836.00
2022-08-11T13:12:25.075Z,22670.00
2022-08-11T13:17:57.047Z,22714.00
2022-08-11T13:23:28.828Z,22536.00
2022-08-11T13:29:00.969Z,18174.00
2022-08-11T13:34:32.539Z,20580.00
2022-08-11T13:40:04.256Z,20450.00
2022-08-11T13:45:36.125Z,21995.00
2022-08-11T13:51:07.894Z,19064.00
2022-08-11T13:56:39.950Z,18709.00
2022-08-11T14:02:21.776Z,16718.00
2022-08-11T14:07:43.419Z,18448.00
2022-08-11T14:13:15.138Z,18365.00
2022-08-11T14:18:46.893Z,18942.00
2022-08-11T14:24:18.689Z,18856.00
2022-08-11T14:29:50.451Z,20536.00
2022-08-11T14:35:22.448Z,20787.00
2022-08-11T14:37:34.716Z,16740.00
2022-08-11T14:43:06.058Z,19904.00
2022-08-11T14:48:37.659Z,17670.00
2022-08-11T14:54:09.495Z,17548.00
2022-08-11T14:59:41.485Z,18110.00
2022-08-11T15:05:13.202Z,19937.00
2022-08-11T15:10:45.043Z,23572.00
2022-08-11T15:16:16.607Z,23641.00
2022-08-11T15:21:48.495Z,23559.00
2022-08-11T15:27:20.349Z,24239.00
2022-08-11T15:32:52.101Z,23688.00
2022-08-11T15:38:24.045Z,21664.00
2022-08-11T15:43:55.751Z,20963.00
2022-08-11T15:50:11.666Z,15632.00
2022-08-11T16:00:28.378Z,14467.00
2022-08-11T16:06:00.397Z,11327.00
2022-08-11T16:17:02.077Z,7459.00
2022-08-11T16:22:33.895Z,6240.00
2022-08-11T16:28:05.467Z,5874.00
2022-08-11T16:33:49.611Z,6011.00
2022-08-11T16:39:09.213Z,7884.00
2022-08-11T16:44:41.105Z,7878.00
2022-08-11T16:50:12.662Z,6820.00
2022-08-11T16:55:52.511Z,3469.00
2022-08-11T17:01:16.596Z,6922.00
2022-08-11T17:06:48.332Z,7022.00
2022-08-11T17:12:19.817Z,6583.00
2022-08-11T17:17:51.728Z,6108.00
2022-08-11T17:23:23.182Z,5022.00
2022-08-11T17:28:54.898Z,3588.00
2022-08-11T17:34:26.896Z,4813.00
2022-08-11T17:39:58.342Z,4420.00
2022-08-11T17:45:30.199Z,3778.00
2022-08-11T17:51:01.930Z,3902.00
2022-08-11T17:56:34.038Z,3468.00
2022-08-11T18:02:05.897Z,3105.00
2022-08-11T18:07:37.545Z,2713.00
2022-08-11T18:13:09.247Z,2071.00
2022-08-11T18:26:31.147Z,1037.00
2022-08-11T18:32:02.972Z,620.00
2022-08-11T18:37:35.017Z,370.00
2022-08-11T18:43:06.704Z,295.00
2022-08-11T18:48:38.138Z,148.00
2022-08-11T18:54:09.771Z,79.00
2022-08-11T18:59:41.621Z,34.00
2022-08-11T19:05:13.448Z,15.00
2022-08-11T19:16:17.270Z,3.00
2022-08-11T19:21:49.493Z,1.00
2022-08-11T19:27:20.920Z,1.00
2022-08-11T19:32:52.848Z,0.00
2022-08-11T19:38:24.827Z,1.00
2022-08-11T19:43:56.439Z,1.00
2022-08-11T19:49:28.369Z,0.00
2022-08-11T19:55:00.142Z,1.00
2022-08-11T20:00:31.927Z,0.00
2022-08-11T20:06:03.951Z,1.00
2022-08-11T20:11:35.622Z,1.00
2022-08-11T20:17:07.338Z,0.00
2022-08-11T20:22:39.480Z,0.00
2022-08-11T20:28:11.021Z,1.00
2022-08-11T20:33:42.681Z,1.00
2022-08-11T20:39:14.754Z,0.00
2022-08-11T20:44:46.433Z,0.00
2022-08-11T20:50:20.393Z,0.00
2022-08-11T20:55:53.615Z,0.00
2022-08-11T21:01:38.330Z,0.00
2022-08-11T21:06:53.981Z,1.00
2022-08-11T21:12:25.528Z,0.00
2022-08-11T21:18:06.394Z,0.00
2022-08-11T21:23:30.798Z,0.00
2022-08-11T21:29:02.534Z,0.00
2022-08-11T21:34:34.104Z,0.00
2022-08-11T21:40:05.897Z,1.00
2022-08-11T21:45:37.738Z,1.00
2022-08-11T21:51:09.761Z,0.00
2022-08-11T21:56:41.294Z,0.00
2022-08-11T22:02:13.425Z,1.00
2022-08-11T22:07:45.284Z,0.00
2022-08-11T22:13:16.516Z,0.00
2022-08-11T22:18:48.119Z,0.00
2022-08-11T22:24:29.771Z,0.00
2022-08-11T22:29:51.863Z,1.00
2022-08-11T22:35:23.465Z,1.00
2022-08-11T22:40:55.137Z,1.00
2022-08-11T22:46:27.026Z,0.00
2022-08-11T22:51:58.696Z,0.00
2022-08-11T22:54:22.757Z,1.00
2022-08-11T22:59:54.805Z,0.00
2022-08-11T23:05:26.497Z,0.00
2022-08-11T23:10:58.174Z,0.00
2022-08-11T23:16:29.913Z,0.00
2022-08-11T23:22:01.883Z,0.00
2022-08-11T23:27:33.397Z,1.00
2022-08-11T23:33:05.351Z,0.00
2022-08-11T23:38:37.086Z,1.00
2022-08-11T23:44:08.813Z,0.00
2022-08-11T23:49:40.663Z,1.00
2022-08-11T23:55:12.541Z,1.00
